Airfield :
LOGIN :

Register | Disclaimer

   EN    FR    IT 

 










Legend :    VFR   Marginal VFR   IFR   Intensive IFR   Very Intensive IFR
Visi :
Ceiling :
>= 8 km
>= 3000ft
5 to 8 km
1000 to 3000 ft
1500m to 5 km
500 to 1000 ft
800 to 1500m
200 to 500 ft
< 800m
< 200 ft
Symbols :   Thunderstorms  Fog  Heavy snow  Heavy precipitations  Wind > 20 kt
SIGMETs :     Misc.  Thunderstorms  Icing  Turbulence  Mountain Waves  Volcanic Ashes






- Airport Elevation : 1197 ft
- IATA code : SPM


ETAD - Spangdahlem Ab

CURRENT METAR :
  • 151255Z AUTO 11006KT 9999 FEW190 27/13 A2984 RMK AO2 SLP091 T02650125 $

EXPIRED METARs :
  • 151155Z AUTO 14004KT 9999 CLR 26/12 A2985 RMK AO2 SLP094 T02560121 10256 20130 57015
  • 151055Z AUTO 13003KT 9999 CLR 24/12 A2987 RMK AO2 SLP101 T02420122 $
  • 150955Z AUTO 19005KT 9999 CLR 23/12 A2989 RMK AO2 SLP108 T02280118 $
  • 150855Z AUTO 10007KT 9999 CLR 22/11 A2990 RMK AO2 SLP111 T02170105 57010 $

TAF TAF ETAD
Valid from the 15 at 12:00 until the 16 at 18:00 UTC


151200Z 1512/1618 14009KT 9999 FEW080 QNH2983INS
BECMG 1517/1518 15010G15KT 9000 -SHRA SCT025 BKN060 QNH2981INS
TEMPO 1518/1519 8000 VCTS BKN030CB
BECMG 1522/1523 21012G20KT 9999 NSW BKN025 QNH2984INS
BECMG 1610/1611 22015G30KT 9000 -SHRA SCT030 BKN040 QNH2994INS
BECMG 1614/1615 24015G30KT 9999 NSW SCT040 BKN060 QNH2996INS TX25/1514Z TN14/1605Z



MET'MAP, your aeronautical weather chart ! - Copyright ORBIFLY December 2007 - Disclaimer

ORBIFLY MET'MAP TEAM :

Programming & Development : Alexandra Zaïnal
Original concept : Baudouin d'Aumeries
Technical & hardware support : Manuel Goepfert
Assistance : Marc-Olivier Méhu




SOURCES & CREDITS :

   NOAA